sensor_id;sensor_type;location;lat;lon;timestamp;P1;durP1;ratioP1;P2;durP2;ratioP2
4933;SDS011;2482;49.154;8.254;2023-11-21T00:01:33;6.93;;;2.07;;
4933;SDS011;2482;49.154;8.254;2023-11-21T00:04:02;4.07;;;1.87;;
4933;SDS011;2482;49.154;8.254;2023-11-21T00:06:29;7.43;;;2.30;;
4933;SDS011;2482;49.154;8.254;2023-11-21T00:08:56;5.53;;;2.00;;
4933;SDS011;2482;49.154;8.254;2023-11-21T00:11:23;9.33;;;2.23;;
4933;SDS011;2482;49.154;8.254;2023-11-21T00:13:52;5.33;;;2.53;;
4933;SDS011;2482;49.154;8.254;2023-11-21T00:16:19;7.33;;;2.00;;
4933;SDS011;2482;49.154;8.254;2023-11-21T00:18:48;9.70;;;2.20;;
4933;SDS011;2482;49.154;8.254;2023-11-21T00:21:16;8.90;;;2.07;;
4933;SDS011;2482;49.154;8.254;2023-11-21T00:23:43;2.70;;;1.93;;
4933;SDS011;2482;49.154;8.254;2023-11-21T00:26:11;6.17;;;2.03;;
4933;SDS011;2482;49.154;8.254;2023-11-21T00:28:39;9.30;;;2.33;;
4933;SDS011;2482;49.154;8.254;2023-11-21T00:31:06;6.87;;;2.00;;
4933;SDS011;2482;49.154;8.254;2023-11-21T00:33:33;4.33;;;1.77;;
4933;SDS011;2482;49.154;8.254;2023-11-21T00:36:00;5.73;;;2.23;;
4933;SDS011;2482;49.154;8.254;2023-11-21T00:38:27;8.47;;;1.97;;
4933;SDS011;2482;49.154;8.254;2023-11-21T00:40:54;5.63;;;1.77;;
4933;SDS011;2482;49.154;8.254;2023-11-21T00:43:22;6.53;;;2.00;;
4933;SDS011;2482;49.154;8.254;2023-11-21T00:45:50;3.23;;;1.80;;
4933;SDS011;2482;49.154;8.254;2023-11-21T00:48:18;5.43;;;1.77;;
4933;SDS011;2482;49.154;8.254;2023-11-21T00:50:45;7.57;;;2.27;;
4933;SDS011;2482;49.154;8.254;2023-11-21T00:53:12;9.33;;;1.90;;
4933;SDS011;2482;49.154;8.254;2023-11-21T00:55:39;3.30;;;1.37;;
4933;SDS011;2482;49.154;8.254;2023-11-21T00:58:06;5.43;;;1.80;;
4933;SDS011;2482;49.154;8.254;2023-11-21T01:00:33;9.97;;;2.10;;
4933;SDS011;2482;49.154;8.254;2023-11-21T01:03:00;6.20;;;2.17;;
4933;SDS011;2482;49.154;8.254;2023-11-21T01:05:31;6.90;;;2.00;;
4933;SDS011;2482;49.154;8.254;2023-11-21T01:07:58;7.50;;;2.20;;
4933;SDS011;2482;49.154;8.254;2023-11-21T01:10:26;7.60;;;2.27;;
4933;SDS011;2482;49.154;8.254;2023-11-21T01:12:54;2.80;;;1.50;;
4933;SDS011;2482;49.154;8.254;2023-11-21T01:15:21;6.60;;;1.93;;
4933;SDS011;2482;49.154;8.254;2023-11-21T01:17:48;9.47;;;1.70;;
4933;SDS011;2482;49.154;8.254;2023-11-21T01:20:15;7.33;;;2.23;;
4933;SDS011;2482;49.154;8.254;2023-11-21T01:22:43;3.73;;;1.70;;
4933;SDS011;2482;49.154;8.254;2023-11-21T01:25:11;4.77;;;1.80;;
4933;SDS011;2482;49.154;8.254;2023-11-21T01:27:40;3.90;;;1.50;;
4933;SDS011;2482;49.154;8.254;2023-11-21T01:30:08;2.00;;;1.30;;
4933;SDS011;2482;49.154;8.254;2023-11-21T01:32:40;7.77;;;2.00;;
4933;SDS011;2482;49.154;8.254;2023-11-21T01:35:07;2.60;;;1.63;;
4933;SDS011;2482;49.154;8.254;2023-11-21T01:37:36;3.20;;;1.40;;
4933;SDS011;2482;49.154;8.254;2023-11-21T01:40:04;5.90;;;1.97;;
4933;SDS011;2482;49.154;8.254;2023-11-21T01:42:36;7.80;;;1.53;;
4933;SDS011;2482;49.154;8.254;2023-11-21T01:45:03;7.10;;;1.60;;
4933;SDS011;2482;49.154;8.254;2023-11-21T01:47:34;3.10;;;1.50;;
4933;SDS011;2482;49.154;8.254;2023-11-21T01:50:02;2.43;;;1.23;;
4933;SDS011;2482;49.154;8.254;2023-11-21T01:52:34;6.63;;;1.67;;
4933;SDS011;2482;49.154;8.254;2023-11-21T01:55:02;7.30;;;2.00;;
4933;SDS011;2482;49.154;8.254;2023-11-21T01:57:31;4.80;;;1.50;;
4933;SDS011;2482;49.154;8.254;2023-11-21T01:59:58;2.40;;;1.40;;
4933;SDS011;2482;49.154;8.254;2023-11-21T02:02:28;4.97;;;1.43;;
4933;SDS011;2482;49.154;8.254;2023-11-21T02:04:55;6.00;;;1.53;;
4933;SDS011;2482;49.154;8.254;2023-11-21T02:07:23;3.07;;;1.40;;
4933;SDS011;2482;49.154;8.254;2023-11-21T02:09:50;2.90;;;1.37;;
4933;SDS011;2482;49.154;8.254;2023-11-21T02:12:17;3.57;;;1.50;;
4933;SDS011;2482;49.154;8.254;2023-11-21T02:14:44;3.20;;;1.33;;
4933;SDS011;2482;49.154;8.254;2023-11-21T02:17:11;4.17;;;1.90;;
4933;SDS011;2482;49.154;8.254;2023-11-21T02:19:39;2.13;;;1.20;;
4933;SDS011;2482;49.154;8.254;2023-11-21T02:22:06;2.47;;;1.20;;
4933;SDS011;2482;49.154;8.254;2023-11-21T02:24:34;2.90;;;1.60;;
4933;SDS011;2482;49.154;8.254;2023-11-21T02:27:01;2.03;;;1.50;;
4933;SDS011;2482;49.154;8.254;2023-11-21T02:29:28;6.93;;;1.70;;
4933;SDS011;2482;49.154;8.254;2023-11-21T02:31:56;3.13;;;1.80;;
4933;SDS011;2482;49.154;8.254;2023-11-21T02:36:53;2.67;;;1.27;;
4933;SDS011;2482;49.154;8.254;2023-11-21T02:39:20;2.23;;;1.37;;
4933;SDS011;2482;49.154;8.254;2023-11-21T02:41:53;1.60;;;1.50;;
4933;SDS011;2482;49.154;8.254;2023-11-21T02:44:20;2.27;;;1.43;;
4933;SDS011;2482;49.154;8.254;2023-11-21T02:46:47;1.90;;;1.37;;
4933;SDS011;2482;49.154;8.254;2023-11-21T02:49:14;3.97;;;1.50;;
4933;SDS011;2482;49.154;8.254;2023-11-21T02:51:41;4.30;;;1.30;;
4933;SDS011;2482;49.154;8.254;2023-11-21T02:54:11;3.00;;;1.73;;
4933;SDS011;2482;49.154;8.254;2023-11-21T02:56:38;2.63;;;1.50;;
4933;SDS011;2482;49.154;8.254;2023-11-21T02:59:06;2.03;;;1.37;;
4933;SDS011;2482;49.154;8.254;2023-11-21T03:01:33;1.93;;;1.53;;
4933;SDS011;2482;49.154;8.254;2023-11-21T03:04:00;2.20;;;1.27;;
4933;SDS011;2482;49.154;8.254;2023-11-21T03:06:30;5.10;;;1.83;;
4933;SDS011;2482;49.154;8.254;2023-11-21T03:08:57;3.20;;;1.40;;
4933;SDS011;2482;49.154;8.254;2023-11-21T03:11:24;3.40;;;1.40;;
4933;SDS011;2482;49.154;8.254;2023-11-21T03:13:52;2.50;;;1.70;;
4933;SDS011;2482;49.154;8.254;2023-11-21T03:16:20;3.43;;;1.67;;
4933;SDS011;2482;49.154;8.254;2023-11-21T03:18:47;4.30;;;2.47;;
4933;SDS011;2482;49.154;8.254;2023-11-21T03:21:14;8.57;;;2.43;;
4933;SDS011;2482;49.154;8.254;2023-11-21T03:23:42;6.97;;;1.70;;
4933;SDS011;2482;49.154;8.254;2023-11-21T03:26:11;4.37;;;1.60;;
4933;SDS011;2482;49.154;8.254;2023-11-21T03:28:39;3.03;;;2.23;;
4933;SDS011;2482;49.154;8.254;2023-11-21T03:31:06;6.77;;;1.97;;
4933;SDS011;2482;49.154;8.254;2023-11-21T03:33:35;2.70;;;1.80;;
4933;SDS011;2482;49.154;8.254;2023-11-21T03:36:02;4.40;;;1.50;;
4933;SDS011;2482;49.154;8.254;2023-11-21T03:38:30;2.97;;;1.43;;
4933;SDS011;2482;49.154;8.254;2023-11-21T03:40:57;3.47;;;2.07;;
4933;SDS011;2482;49.154;8.254;2023-11-21T03:45:54;1.70;;;1.60;;
4933;SDS011;2482;49.154;8.254;2023-11-21T03:48:21;5.20;;;1.53;;
4933;SDS011;2482;49.154;8.254;2023-11-21T03:50:48;4.97;;;2.00;;
4933;SDS011;2482;49.154;8.254;2023-11-21T03:53:15;4.50;;;1.87;;
4933;SDS011;2482;49.154;8.254;2023-11-21T03:55:42;2.80;;;1.60;;
4933;SDS011;2482;49.154;8.254;2023-11-21T03:58:09;2.80;;;1.40;;
4933;SDS011;2482;49.154;8.254;2023-11-21T04:00:38;7.13;;;2.20;;
4933;SDS011;2482;49.154;8.254;2023-11-21T04:03:06;2.30;;;2.10;;
4933;SDS011;2482;49.154;8.254;2023-11-21T04:05:33;2.80;;;2.10;;
4933;SDS011;2482;49.154;8.254;2023-11-21T04:08:00;4.53;;;1.70;;
4933;SDS011;2482;49.154;8.254;2023-11-21T04:10:27;3.30;;;1.50;;
4933;SDS011;2482;49.154;8.254;2023-11-21T04:12:55;3.30;;;2.00;;
4933;SDS011;2482;49.154;8.254;2023-11-21T04:15:22;3.00;;;1.70;;
4933;SDS011;2482;49.154;8.254;2023-11-21T04:17:49;3.03;;;1.60;;
4933;SDS011;2482;49.154;8.254;2023-11-21T04:20:16;3.13;;;1.83;;
4933;SDS011;2482;49.154;8.254;2023-11-21T04:22:44;7.80;;;1.83;;
4933;SDS011;2482;49.154;8.254;2023-11-21T04:27:45;4.90;;;1.37;;
4933;SDS011;2482;49.154;8.254;2023-11-21T04:30:12;3.63;;;1.40;;
4933;SDS011;2482;49.154;8.254;2023-11-21T04:32:40;3.80;;;1.67;;
4933;SDS011;2482;49.154;8.254;2023-11-21T04:35:08;4.47;;;1.70;;
4933;SDS011;2482;49.154;8.254;2023-11-21T04:37:36;2.60;;;1.20;;
4933;SDS011;2482;49.154;8.254;2023-11-21T04:40:03;3.00;;;1.40;;
4933;SDS011;2482;49.154;8.254;2023-11-21T04:42:34;3.83;;;1.80;;
4933;SDS011;2482;49.154;8.254;2023-11-21T04:45:03;3.60;;;1.50;;
4933;SDS011;2482;49.154;8.254;2023-11-21T04:47:35;1.87;;;1.70;;
4933;SDS011;2482;49.154;8.254;2023-11-21T04:50:02;4.27;;;1.40;;
4933;SDS011;2482;49.154;8.254;2023-11-21T04:52:31;2.97;;;2.30;;
4933;SDS011;2482;49.154;8.254;2023-11-21T04:54:59;4.90;;;1.77;;
4933;SDS011;2482;49.154;8.254;2023-11-21T04:57:28;2.80;;;1.60;;
4933;SDS011;2482;49.154;8.254;2023-11-21T04:59:55;4.27;;;1.60;;
4933;SDS011;2482;49.154;8.254;2023-11-21T05:02:22;2.67;;;1.37;;
4933;SDS011;2482;49.154;8.254;2023-11-21T05:05:01;1.60;;;1.50;;
4933;SDS011;2482;49.154;8.254;2023-11-21T05:07:29;2.20;;;1.40;;
4933;SDS011;2482;49.154;8.254;2023-11-21T05:09:58;3.83;;;1.60;;
4933;SDS011;2482;49.154;8.254;2023-11-21T05:12:25;2.43;;;1.47;;
4933;SDS011;2482;49.154;8.254;2023-11-21T05:14:52;2.43;;;1.80;;
4933;SDS011;2482;49.154;8.254;2023-11-21T05:17:19;1.63;;;1.50;;
4933;SDS011;2482;49.154;8.254;2023-11-21T05:19:46;2.70;;;1.80;;
4933;SDS011;2482;49.154;8.254;2023-11-21T05:22:15;2.57;;;1.70;;
4933;SDS011;2482;49.154;8.254;2023-11-21T05:27:18;3.43;;;1.83;;
4933;SDS011;2482;49.154;8.254;2023-11-21T05:29:45;5.73;;;1.90;;
4933;SDS011;2482;49.154;8.254;2023-11-21T05:32:12;6.47;;;2.57;;
4933;SDS011;2482;49.154;8.254;2023-11-21T05:34:39;2.63;;;2.00;;
4933;SDS011;2482;49.154;8.254;2023-11-21T05:39:39;4.70;;;2.13;;
4933;SDS011;2482;49.154;8.254;2023-11-21T05:42:06;2.50;;;2.23;;
4933;SDS011;2482;49.154;8.254;2023-11-21T05:44:35;4.87;;;1.87;;
4933;SDS011;2482;49.154;8.254;2023-11-21T05:47:02;2.50;;;2.30;;
4933;SDS011;2482;49.154;8.254;2023-11-21T05:52:01;8.67;;;2.67;;
4933;SDS011;2482;49.154;8.254;2023-11-21T05:54:30;4.90;;;2.43;;
4933;SDS011;2482;49.154;8.254;2023-11-21T05:57:00;3.30;;;2.50;;
4933;SDS011;2482;49.154;8.254;2023-11-21T05:59:29;2.67;;;2.37;;
4933;SDS011;2482;49.154;8.254;2023-11-21T06:04:30;4.17;;;2.33;;
4933;SDS011;2482;49.154;8.254;2023-11-21T06:06:58;6.63;;;3.33;;
4933;SDS011;2482;49.154;8.254;2023-11-21T06:09:27;4.33;;;2.83;;
4933;SDS011;2482;49.154;8.254;2023-11-21T06:11:56;3.40;;;2.97;;
4933;SDS011;2482;49.154;8.254;2023-11-21T06:14:23;8.47;;;3.20;;
4933;SDS011;2482;49.154;8.254;2023-11-21T06:16:50;4.10;;;3.70;;
4933;SDS011;2482;49.154;8.254;2023-11-21T06:19:18;8.73;;;3.17;;
4933;SDS011;2482;49.154;8.254;2023-11-21T06:21:46;6.90;;;2.80;;
4933;SDS011;2482;49.154;8.254;2023-11-21T06:24:15;6.13;;;3.30;;
4933;SDS011;2482;49.154;8.254;2023-11-21T06:26:45;6.23;;;3.40;;
4933;SDS011;2482;49.154;8.254;2023-11-21T06:31:43;4.80;;;2.80;;
4933;SDS011;2482;49.154;8.254;2023-11-21T06:34:10;5.10;;;3.57;;
4933;SDS011;2482;49.154;8.254;2023-11-21T06:36:38;4.80;;;3.50;;
4933;SDS011;2482;49.154;8.254;2023-11-21T06:39:06;4.27;;;3.87;;
4933;SDS011;2482;49.154;8.254;2023-11-21T06:41:34;5.37;;;3.90;;
4933;SDS011;2482;49.154;8.254;2023-11-21T06:44:03;9.30;;;3.53;;
4933;SDS011;2482;49.154;8.254;2023-11-21T06:46:32;4.50;;;3.80;;
4933;SDS011;2482;49.154;8.254;2023-11-21T06:48:59;6.30;;;4.40;;
4933;SDS011;2482;49.154;8.254;2023-11-21T06:51:27;6.00;;;4.20;;
4933;SDS011;2482;49.154;8.254;2023-11-21T06:53:54;7.40;;;4.87;;
4933;SDS011;2482;49.154;8.254;2023-11-21T06:56:21;6.53;;;3.90;;
4933;SDS011;2482;49.154;8.254;2023-11-21T06:58:48;6.00;;;3.40;;
4933;SDS011;2482;49.154;8.254;2023-11-21T07:01:16;7.77;;;3.70;;
4933;SDS011;2482;49.154;8.254;2023-11-21T07:03:45;3.70;;;2.80;;
4933;SDS011;2482;49.154;8.254;2023-11-21T07:06:12;5.07;;;3.80;;
4933;SDS011;2482;49.154;8.254;2023-11-21T07:08:42;3.67;;;3.00;;
4933;SDS011;2482;49.154;8.254;2023-11-21T07:11:09;2.73;;;2.50;;
4933;SDS011;2482;49.154;8.254;2023-11-21T07:13:36;6.07;;;2.87;;
4933;SDS011;2482;49.154;8.254;2023-11-21T07:16:03;4.53;;;2.97;;
4933;SDS011;2482;49.154;8.254;2023-11-21T07:18:31;2.43;;;2.23;;
4933;SDS011;2482;49.154;8.254;2023-11-21T07:20:58;3.00;;;2.70;;
4933;SDS011;2482;49.154;8.254;2023-11-21T07:23:25;2.93;;;2.70;;
4933;SDS011;2482;49.154;8.254;2023-11-21T07:25:52;5.13;;;2.90;;
4933;SDS011;2482;49.154;8.254;2023-11-21T07:28:19;9.40;;;3.20;;
4933;SDS011;2482;49.154;8.254;2023-11-21T07:30:48;3.40;;;3.10;;
4933;SDS011;2482;49.154;8.254;2023-11-21T07:33:15;4.40;;;3.13;;
4933;SDS011;2482;49.154;8.254;2023-11-21T07:35:44;3.53;;;3.17;;
4933;SDS011;2482;49.154;8.254;2023-11-21T07:38:10;4.37;;;3.37;;
4933;SDS011;2482;49.154;8.254;2023-11-21T07:40:37;4.80;;;3.03;;
4933;SDS011;2482;49.154;8.254;2023-11-21T07:43:04;3.70;;;3.20;;
4933;SDS011;2482;49.154;8.254;2023-11-21T07:45:33;3.27;;;2.97;;
4933;SDS011;2482;49.154;8.254;2023-11-21T07:48:00;3.70;;;3.40;;
4933;SDS011;2482;49.154;8.254;2023-11-21T07:50:29;8.17;;;3.67;;
4933;SDS011;2482;49.154;8.254;2023-11-21T07:52:57;3.47;;;2.50;;
4933;SDS011;2482;49.154;8.254;2023-11-21T07:57:58;3.47;;;3.17;;
4933;SDS011;2482;49.154;8.254;2023-11-21T08:00:25;4.70;;;3.67;;
4933;SDS011;2482;49.154;8.254;2023-11-21T08:02:56;4.20;;;3.80;;
4933;SDS011;2482;49.154;8.254;2023-11-21T08:05:23;4.63;;;3.17;;
4933;SDS011;2482;49.154;8.254;2023-11-21T08:08:10;3.60;;;3.30;;
4933;SDS011;2482;49.154;8.254;2023-11-21T08:10:37;6.03;;;4.07;;
4933;SDS011;2482;49.154;8.254;2023-11-21T08:13:11;6.50;;;4.30;;
4933;SDS011;2482;49.154;8.254;2023-11-21T08:15:41;4.37;;;4.00;;
4933;SDS011;2482;49.154;8.254;2023-11-21T08:18:13;4.50;;;3.90;;
4933;SDS011;2482;49.154;8.254;2023-11-21T08:20:41;5.77;;;4.73;;
4933;SDS011;2482;49.154;8.254;2023-11-21T08:23:08;6.63;;;4.40;;
4933;SDS011;2482;49.154;8.254;2023-11-21T08:25:37;5.30;;;4.70;;
4933;SDS011;2482;49.154;8.254;2023-11-21T08:30:36;6.80;;;6.10;;
4933;SDS011;2482;49.154;8.254;2023-11-21T08:33:04;8.73;;;6.30;;
4933;SDS011;2482;49.154;8.254;2023-11-21T08:35:33;8.97;;;6.73;;
4933;SDS011;2482;49.154;8.254;2023-11-21T08:38:03;7.03;;;5.90;;
4933;SDS011;2482;49.154;8.254;2023-11-21T08:40:31;7.73;;;6.30;;
4933;SDS011;2482;49.154;8.254;2023-11-21T08:45:39;7.47;;;6.47;;
4933;SDS011;2482;49.154;8.254;2023-11-21T08:48:15;6.03;;;5.10;;
4933;SDS011;2482;49.154;8.254;2023-11-21T08:53:26;8.10;;;5.83;;
4933;SDS011;2482;49.154;8.254;2023-11-21T08:55:53;8.10;;;5.90;;
4933;SDS011;2482;49.154;8.254;2023-11-21T09:00:51;6.80;;;5.30;;
4933;SDS011;2482;49.154;8.254;2023-11-21T09:03:18;8.77;;;5.90;;
4933;SDS011;2482;49.154;8.254;2023-11-21T09:05:45;6.90;;;6.07;;
4933;SDS011;2482;49.154;8.254;2023-11-21T09:13:17;9.13;;;6.73;;
4933;SDS011;2482;49.154;8.254;2023-11-21T09:15:45;9.10;;;6.23;;
4933;SDS011;2482;49.154;8.254;2023-11-21T09:18:13;10.67;;;7.23;;
4933;SDS011;2482;49.154;8.254;2023-11-21T09:20:42;7.93;;;6.13;;
4933;SDS011;2482;49.154;8.254;2023-11-21T09:23:11;8.00;;;6.60;;
4933;SDS011;2482;49.154;8.254;2023-11-21T09:25:38;12.30;;;6.20;;
4933;SDS011;2482;49.154;8.254;2023-11-21T09:28:06;7.23;;;6.33;;
4933;SDS011;2482;49.154;8.254;2023-11-21T09:30:34;7.37;;;6.50;;
4933;SDS011;2482;49.154;8.254;2023-11-21T09:33:02;8.77;;;6.93;;
4933;SDS011;2482;49.154;8.254;2023-11-21T09:35:34;8.17;;;6.50;;
4933;SDS011;2482;49.154;8.254;2023-11-21T09:38:01;10.47;;;6.47;;
4933;SDS011;2482;49.154;8.254;2023-11-21T09:40:32;8.40;;;6.50;;
4933;SDS011;2482;49.154;8.254;2023-11-21T09:43:00;11.30;;;7.13;;
4933;SDS011;2482;49.154;8.254;2023-11-21T09:45:47;9.10;;;6.63;;
4933;SDS011;2482;49.154;8.254;2023-11-21T09:48:21;9.80;;;6.07;;
4933;SDS011;2482;49.154;8.254;2023-11-21T09:50:52;9.53;;;6.20;;
4933;SDS011;2482;49.154;8.254;2023-11-21T09:53:21;6.20;;;5.23;;
4933;SDS011;2482;49.154;8.254;2023-11-21T09:55:53;7.93;;;6.50;;
4933;SDS011;2482;49.154;8.254;2023-11-21T09:58:21;7.93;;;5.00;;
4933;SDS011;2482;49.154;8.254;2023-11-21T10:00:51;8.83;;;5.27;;
4933;SDS011;2482;49.154;8.254;2023-11-21T10:03:23;8.17;;;5.63;;
4933;SDS011;2482;49.154;8.254;2023-11-21T10:05:50;6.43;;;4.60;;
4933;SDS011;2482;49.154;8.254;2023-11-21T10:08:22;5.67;;;3.73;;
4933;SDS011;2482;49.154;8.254;2023-11-21T10:10:51;5.10;;;3.80;;
4933;SDS011;2482;49.154;8.254;2023-11-21T10:13:21;5.10;;;3.50;;
4933;SDS011;2482;49.154;8.254;2023-11-21T10:15:52;5.20;;;3.70;;
4933;SDS011;2482;49.154;8.254;2023-11-21T10:18:21;7.70;;;3.93;;
4933;SDS011;2482;49.154;8.254;2023-11-21T10:20:52;7.00;;;3.57;;
4933;SDS011;2482;49.154;8.254;2023-11-21T10:23:21;4.27;;;3.40;;
4933;SDS011;2482;49.154;8.254;2023-11-21T10:25:50;6.60;;;4.23;;
4933;SDS011;2482;49.154;8.254;2023-11-21T10:28:35;4.20;;;3.50;;
4933;SDS011;2482;49.154;8.254;2023-11-21T10:31:06;4.47;;;4.07;;
4933;SDS011;2482;49.154;8.254;2023-11-21T10:33:34;5.77;;;4.50;;
4933;SDS011;2482;49.154;8.254;2023-11-21T10:36:01;6.10;;;4.30;;
4933;SDS011;2482;49.154;8.254;2023-11-21T10:38:28;4.57;;;4.13;;
4933;SDS011;2482;49.154;8.254;2023-11-21T10:41:11;5.30;;;4.20;;
4933;SDS011;2482;49.154;8.254;2023-11-21T10:43:42;5.13;;;4.30;;
4933;SDS011;2482;49.154;8.254;2023-11-21T10:46:10;6.13;;;5.03;;
4933;SDS011;2482;49.154;8.254;2023-11-21T10:48:44;5.10;;;4.50;;
4933;SDS011;2482;49.154;8.254;2023-11-21T10:51:13;8.20;;;5.03;;
4933;SDS011;2482;49.154;8.254;2023-11-21T10:53:42;6.63;;;5.00;;
4933;SDS011;2482;49.154;8.254;2023-11-21T10:56:14;6.63;;;5.13;;
4933;SDS011;2482;49.154;8.254;2023-11-21T10:58:46;7.10;;;6.40;;
4933;SDS011;2482;49.154;8.254;2023-11-21T11:01:15;5.90;;;5.30;;
4933;SDS011;2482;49.154;8.254;2023-11-21T11:03:45;7.57;;;5.70;;
4933;SDS011;2482;49.154;8.254;2023-11-21T11:06:13;7.50;;;6.43;;
4933;SDS011;2482;49.154;8.254;2023-11-21T11:08:41;6.73;;;5.90;;
4933;SDS011;2482;49.154;8.254;2023-11-21T11:11:09;6.90;;;4.80;;
4933;SDS011;2482;49.154;8.254;2023-11-21T11:13:37;6.60;;;4.93;;
4933;SDS011;2482;49.154;8.254;2023-11-21T11:16:07;5.70;;;5.20;;
4933;SDS011;2482;49.154;8.254;2023-11-21T11:18:37;5.33;;;4.83;;
4933;SDS011;2482;49.154;8.254;2023-11-21T11:21:21;7.23;;;5.00;;
4933;SDS011;2482;49.154;8.254;2023-11-21T11:26:54;4.50;;;3.97;;
4933;SDS011;2482;49.154;8.254;2023-11-21T11:33:19;5.80;;;5.07;;
4933;SDS011;2482;49.154;8.254;2023-11-21T11:36:06;6.67;;;5.10;;
4933;SDS011;2482;49.154;8.254;2023-11-21T11:39:27;8.00;;;4.77;;
4933;SDS011;2482;49.154;8.254;2023-11-21T11:41:56;5.40;;;4.90;;
4933;SDS011;2482;49.154;8.254;2023-11-21T11:49:58;5.30;;;4.80;;
4933;SDS011;2482;49.154;8.254;2023-11-21T11:52:43;4.37;;;3.97;;
4933;SDS011;2482;49.154;8.254;2023-11-21T11:55:13;8.33;;;4.60;;
4933;SDS011;2482;49.154;8.254;2023-11-21T11:57:47;4.23;;;3.83;;
4933;SDS011;2482;49.154;8.254;2023-11-21T12:00:20;4.03;;;3.33;;
4933;SDS011;2482;49.154;8.254;2023-11-21T12:02:56;3.73;;;3.43;;
4933;SDS011;2482;49.154;8.254;2023-11-21T12:05:28;3.40;;;3.10;;
4933;SDS011;2482;49.154;8.254;2023-11-21T12:08:11;4.60;;;3.20;;
4933;SDS011;2482;49.154;8.254;2023-11-21T12:10:39;4.43;;;3.30;;
4933;SDS011;2482;49.154;8.254;2023-11-21T12:13:08;4.27;;;3.70;;
4933;SDS011;2482;49.154;8.254;2023-11-21T12:15:38;4.50;;;4.10;;
4933;SDS011;2482;49.154;8.254;2023-11-21T12:18:09;3.83;;;3.53;;
4933;SDS011;2482;49.154;8.254;2023-11-21T12:20:36;6.70;;;4.23;;
4933;SDS011;2482;49.154;8.254;2023-11-21T12:23:07;6.30;;;4.20;;
4933;SDS011;2482;49.154;8.254;2023-11-21T12:25:35;6.13;;;4.70;;
4933;SDS011;2482;49.154;8.254;2023-11-21T12:28:03;6.87;;;4.47;;
4933;SDS011;2482;49.154;8.254;2023-11-21T12:30:33;7.70;;;4.20;;
4933;SDS011;2482;49.154;8.254;2023-11-21T12:33:05;5.77;;;4.60;;
4933;SDS011;2482;49.154;8.254;2023-11-21T12:35:36;6.20;;;4.77;;
4933;SDS011;2482;49.154;8.254;2023-11-21T12:38:04;4.93;;;4.43;;
4933;SDS011;2482;49.154;8.254;2023-11-21T12:40:32;5.97;;;4.47;;
4933;SDS011;2482;49.154;8.254;2023-11-21T12:43:00;6.83;;;5.00;;
4933;SDS011;2482;49.154;8.254;2023-11-21T12:45:31;5.53;;;4.67;;
4933;SDS011;2482;49.154;8.254;2023-11-21T12:47:59;5.17;;;4.43;;
4933;SDS011;2482;49.154;8.254;2023-11-21T12:50:35;5.90;;;4.30;;
4933;SDS011;2482;49.154;8.254;2023-11-21T12:55:37;7.27;;;4.40;;
4933;SDS011;2482;49.154;8.254;2023-11-21T12:58:05;5.00;;;4.27;;
4933;SDS011;2482;49.154;8.254;2023-11-21T13:00:42;4.47;;;3.83;;
4933;SDS011;2482;49.154;8.254;2023-11-21T13:03:14;6.97;;;3.97;;
4933;SDS011;2482;49.154;8.254;2023-11-21T13:05:48;7.53;;;3.37;;
4933;SDS011;2482;49.154;8.254;2023-11-21T13:08:18;4.27;;;3.67;;
4933;SDS011;2482;49.154;8.254;2023-11-21T13:10:49;4.90;;;4.10;;
4933;SDS011;2482;49.154;8.254;2023-11-21T13:13:21;6.13;;;3.77;;
4933;SDS011;2482;49.154;8.254;2023-11-21T13:15:52;4.47;;;3.57;;
4933;SDS011;2482;49.154;8.254;2023-11-21T13:18:26;4.93;;;3.40;;
4933;SDS011;2482;49.154;8.254;2023-11-21T13:20:54;10.50;;;3.90;;
4933;SDS011;2482;49.154;8.254;2023-11-21T13:23:24;5.43;;;3.67;;
4933;SDS011;2482;49.154;8.254;2023-11-21T13:25:52;3.70;;;3.40;;
4933;SDS011;2482;49.154;8.254;2023-11-21T13:28:31;5.17;;;3.33;;
4933;SDS011;2482;49.154;8.254;2023-11-21T13:31:01;4.17;;;3.77;;
4933;SDS011;2482;49.154;8.254;2023-11-21T13:33:48;3.60;;;2.90;;
4933;SDS011;2482;49.154;8.254;2023-11-21T13:36:25;4.77;;;3.00;;
4933;SDS011;2482;49.154;8.254;2023-11-21T13:38:56;4.27;;;2.50;;
4933;SDS011;2482;49.154;8.254;2023-11-21T13:41:25;3.70;;;1.93;;
4933;SDS011;2482;49.154;8.254;2023-11-21T13:43:57;2.80;;;1.87;;
4933;SDS011;2482;49.154;8.254;2023-11-21T13:46:45;3.93;;;2.50;;
4933;SDS011;2482;49.154;8.254;2023-11-21T13:49:13;7.33;;;2.40;;
4933;SDS011;2482;49.154;8.254;2023-11-21T13:51:42;3.50;;;2.10;;
4933;SDS011;2482;49.154;8.254;2023-11-21T13:54:15;3.23;;;1.70;;
4933;SDS011;2482;49.154;8.254;2023-11-21T13:56:42;2.10;;;1.90;;
4933;SDS011;2482;49.154;8.254;2023-11-21T13:59:11;2.70;;;1.50;;
4933;SDS011;2482;49.154;8.254;2023-11-21T14:01:51;3.43;;;1.93;;
4933;SDS011;2482;49.154;8.254;2023-11-21T14:04:43;4.13;;;1.87;;
4933;SDS011;2482;49.154;8.254;2023-11-21T14:07:23;3.60;;;2.00;;
4933;SDS011;2482;49.154;8.254;2023-11-21T14:10:03;3.10;;;1.70;;
4933;SDS011;2482;49.154;8.254;2023-11-21T14:12:39;4.10;;;1.70;;
4933;SDS011;2482;49.154;8.254;2023-11-21T14:15:09;6.50;;;1.70;;
4933;SDS011;2482;49.154;8.254;2023-11-21T14:17:38;2.60;;;1.73;;
4933;SDS011;2482;49.154;8.254;2023-11-21T14:20:08;2.50;;;1.90;;
4933;SDS011;2482;49.154;8.254;2023-11-21T14:22:43;3.23;;;1.80;;
4933;SDS011;2482;49.154;8.254;2023-11-21T14:25:10;2.80;;;2.10;;
4933;SDS011;2482;49.154;8.254;2023-11-21T14:27:38;2.87;;;1.97;;
4933;SDS011;2482;49.154;8.254;2023-11-21T14:30:05;2.57;;;1.70;;
4933;SDS011;2482;49.154;8.254;2023-11-21T14:32:33;3.17;;;1.87;;
4933;SDS011;2482;49.154;8.254;2023-11-21T14:35:01;2.30;;;2.00;;
4933;SDS011;2482;49.154;8.254;2023-11-21T14:37:29;2.47;;;1.50;;
4933;SDS011;2482;49.154;8.254;2023-11-21T14:39:57;5.90;;;1.93;;
4933;SDS011;2482;49.154;8.254;2023-11-21T14:42:24;3.40;;;2.10;;
4933;SDS011;2482;49.154;8.254;2023-11-21T14:44:55;3.33;;;2.30;;
4933;SDS011;2482;49.154;8.254;2023-11-21T14:47:29;3.97;;;2.03;;
4933;SDS011;2482;49.154;8.254;2023-11-21T14:49:56;5.13;;;2.17;;
4933;SDS011;2482;49.154;8.254;2023-11-21T14:52:26;3.90;;;2.07;;
4933;SDS011;2482;49.154;8.254;2023-11-21T14:55:01;4.10;;;2.10;;
4933;SDS011;2482;49.154;8.254;2023-11-21T14:58:12;5.93;;;2.20;;
4933;SDS011;2482;49.154;8.254;2023-11-21T15:00:45;8.17;;;2.70;;
4933;SDS011;2482;49.154;8.254;2023-11-21T15:03:12;5.50;;;2.50;;
4933;SDS011;2482;49.154;8.254;2023-11-21T15:06:00;5.60;;;2.57;;
4933;SDS011;2482;49.154;8.254;2023-11-21T15:08:49;3.57;;;2.37;;
4933;SDS011;2482;49.154;8.254;2023-11-21T15:11:43;6.67;;;2.60;;
4933;SDS011;2482;49.154;8.254;2023-11-21T15:14:11;9.80;;;3.00;;
4933;SDS011;2482;49.154;8.254;2023-11-21T15:16:46;5.83;;;3.07;;
4933;SDS011;2482;49.154;8.254;2023-11-21T15:19:17;6.20;;;2.57;;
4933;SDS011;2482;49.154;8.254;2023-11-21T15:21:51;5.93;;;3.07;;
4933;SDS011;2482;49.154;8.254;2023-11-21T15:24:19;5.67;;;2.60;;
4933;SDS011;2482;49.154;8.254;2023-11-21T15:26:47;4.53;;;2.47;;
4933;SDS011;2482;49.154;8.254;2023-11-21T15:29:14;5.90;;;3.17;;
4933;SDS011;2482;49.154;8.254;2023-11-21T15:31:42;8.43;;;3.07;;
4933;SDS011;2482;49.154;8.254;2023-11-21T15:34:15;5.40;;;2.80;;
4933;SDS011;2482;49.154;8.254;2023-11-21T15:36:43;4.70;;;2.57;;
4933;SDS011;2482;49.154;8.254;2023-11-21T15:39:10;4.03;;;2.60;;
4933;SDS011;2482;49.154;8.254;2023-11-21T15:41:39;6.10;;;3.00;;
4933;SDS011;2482;49.154;8.254;2023-11-21T15:44:07;6.73;;;3.17;;
4933;SDS011;2482;49.154;8.254;2023-11-21T15:46:39;7.73;;;3.30;;
4933;SDS011;2482;49.154;8.254;2023-11-21T15:49:08;6.47;;;3.03;;
4933;SDS011;2482;49.154;8.254;2023-11-21T15:51:40;8.67;;;2.80;;
4933;SDS011;2482;49.154;8.254;2023-11-21T15:54:13;5.87;;;3.30;;
4933;SDS011;2482;49.154;8.254;2023-11-21T15:59:12;10.50;;;3.20;;
4933;SDS011;2482;49.154;8.254;2023-11-21T16:01:40;5.20;;;2.83;;
4933;SDS011;2482;49.154;8.254;2023-11-21T16:04:15;7.60;;;4.43;;
4933;SDS011;2482;49.154;8.254;2023-11-21T16:06:43;6.33;;;3.30;;
4933;SDS011;2482;49.154;8.254;2023-11-21T16:09:12;6.67;;;2.57;;
4933;SDS011;2482;49.154;8.254;2023-11-21T16:11:48;4.97;;;3.20;;
4933;SDS011;2482;49.154;8.254;2023-11-21T16:14:19;11.27;;;3.63;;
4933;SDS011;2482;49.154;8.254;2023-11-21T16:16:51;7.13;;;3.50;;
4933;SDS011;2482;49.154;8.254;2023-11-21T16:19:19;6.23;;;3.97;;
4933;SDS011;2482;49.154;8.254;2023-11-21T16:21:48;8.00;;;4.70;;
4933;SDS011;2482;49.154;8.254;2023-11-21T16:24:15;6.97;;;3.80;;
4933;SDS011;2482;49.154;8.254;2023-11-21T16:26:42;6.13;;;3.20;;